Time,TemperatureF,DewpointF,PressureIn,WindDirection,WindDirectionDegrees,WindSpeedMPH,WindSpeedGustMPH,Humidity,HourlyPrecipIn,Conditions,Clouds,dailyrainin,SoftwareType,DateUTC
2013-03-09 00:07:00,34.1,29.0,30.39,ENE,58,1.0,3.0,80,0.00,,,0.02,weatherlink.com 1.10,2013-03-09 05:07:00,
2013-03-09 00:22:00,34.0,28.0,30.39,ENE,75,2.0,2.0,80,0.00,,,0.02,weatherlink.com 1.10,2013-03-09 05:22:00,
2013-03-09 00:37:00,34.0,28.0,30.38,ENE,57,1.0,4.0,80,0.00,,,0.00,weatherlink.com 1.10,2013-03-09 05:37:00,
2013-03-09 00:52:00,33.9,29.0,30.37,ENE,57,3.0,4.0,81,0.00,,,0.00,weatherlink.com 1.10,2013-03-09 05:52:00,
2013-03-09 01:07:00,34.1,29.0,30.37,ENE,74,2.0,4.0,81,0.00,,,0.00,weatherlink.com 1.10,2013-03-09 06:07:00,
2013-03-09 01:23:00,33.9,29.0,30.37,ENE,60,3.0,5.0,82,0.00,,,0.00,weatherlink.com 1.10,2013-03-09 06:23:00,
2013-03-09 01:38:00,33.8,29.0,30.37,ENE,70,2.0,4.0,82,0.00,,,0.00,weatherlink.com 1.10,2013-03-09 06:38:00,
2013-03-09 01:53:00,33.7,29.0,30.37,ENE,69,2.0,3.0,82,0.00,,,0.00,weatherlink.com 1.10,2013-03-09 06:53:00,
2013-03-09 02:08:00,33.7,29.0,30.36,ENE,78,3.0,6.0,82,0.00,,,0.00,weatherlink.com 1.10,2013-03-09 07:08:00,
2013-03-09 02:23:00,33.5,29.0,30.36,East,98,2.0,4.0,83,0.00,,,0.00,weatherlink.com 1.10,2013-03-09 07:23:00,
2013-03-09 02:38:00,33.5,29.0,30.35,ENE,75,3.0,5.0,83,0.00,,,0.00,weatherlink.com 1.10,2013-03-09 07:38:00,
2013-03-09 02:53:00,33.7,29.0,30.34,ENE,77,5.0,5.0,83,0.00,,,0.00,weatherlink.com 1.10,2013-03-09 07:53:00,
2013-03-09 03:08:00,33.7,29.0,30.33,ENE,74,4.0,6.0,83,0.00,,,0.00,weatherlink.com 1.10,2013-03-09 08:08:00,
2013-03-09 03:23:00,33.6,29.0,30.33,ENE,73,3.0,4.0,83,0.00,,,0.00,weatherlink.com 1.10,2013-03-09 08:23:00,
2013-03-09 03:38:00,33.3,29.0,30.33,East,92,3.0,4.0,83,0.00,,,0.00,weatherlink.com 1.10,2013-03-09 08:38:00,
2013-03-09 03:53:00,33.2,29.0,30.32,East,82,2.0,3.0,84,0.00,,,0.00,weatherlink.com 1.10,2013-03-09 08:53:00,
2013-03-09 04:08:00,33.0,29.0,30.32,East,84,2.0,4.0,84,0.00,,,0.00,weatherlink.com 1.10,2013-03-09 09:08:00,
2013-03-09 04:23:00,32.6,29.0,30.33,East,91,1.0,2.0,85,0.00,,,0.00,weatherlink.com 1.10,2013-03-09 09:23:00,
2013-03-09 04:38:00,32.3,28.0,30.33,East,79,2.0,2.0,85,0.00,,,0.00,weatherlink.com 1.10,2013-03-09 09:38:00,
2013-03-09 04:53:00,32.5,29.0,30.32,ENE,69,3.0,4.0,85,0.00,,,0.00,weatherlink.com 1.10,2013-03-09 09:53:00,
2013-03-09 05:08:00,33.0,29.0,30.32,ENE,66,5.0,5.0,84,0.00,,,0.00,weatherlink.com 1.10,2013-03-09 10:08:00,
2013-03-09 05:23:00,33.1,29.0,30.32,ENE,77,4.0,4.0,83,0.00,,,0.00,weatherlink.com 1.10,2013-03-09 10:23:00,
2013-03-09 05:38:00,32.9,28.0,30.33,East,89,3.0,3.0,83,0.00,,,0.00,weatherlink.com 1.10,2013-03-09 10:38:00,
2013-03-09 05:53:00,32.2,28.0,30.33,ENE,75,3.0,3.0,85,0.00,,,0.00,weatherlink.com 1.10,2013-03-09 10:53:00,
2013-03-09 06:08:00,32.6,28.0,30.33,East,85,3.0,4.0,84,0.00,,,0.00,weatherlink.com 1.10,2013-03-09 11:08:00,
2013-03-09 06:23:00,32.5,28.0,30.32,East,81,4.0,4.0,84,0.00,,,0.00,weatherlink.com 1.10,2013-03-09 11:23:00,
2013-03-09 06:38:00,32.6,28.0,30.32,East,82,4.0,6.0,84,0.00,,,0.00,weatherlink.com 1.10,2013-03-09 11:38:00,
2013-03-09 06:53:00,32.8,28.0,30.32,East,79,6.0,7.0,83,0.00,,,0.00,weatherlink.com 1.10,2013-03-09 11:53:00,
2013-03-09 07:08:00,33.0,28.0,30.31,ENE,77,6.0,8.0,82,0.00,,,0.00,weatherlink.com 1.10,2013-03-09 12:08:00,
2013-03-09 07:23:00,33.4,28.0,30.30,ENE,75,7.0,8.0,81,0.00,,,0.00,weatherlink.com 1.10,2013-03-09 12:23:00,
2013-03-09 07:38:00,33.9,28.0,30.30,East,84,8.0,9.0,80,0.00,,,0.00,weatherlink.com 1.10,2013-03-09 12:38:00,
2013-03-09 07:53:00,34.3,28.0,30.30,East,89,5.0,7.0,79,0.00,,,0.00,weatherlink.com 1.10,2013-03-09 12:53:00,
2013-03-09 08:08:00,35.1,29.0,30.31,East,93,4.0,6.0,79,0.00,,,0.00,weatherlink.com 1.10,2013-03-09 13:08:00,
2013-03-09 08:23:00,35.9,29.0,30.31,ESE,121,8.0,9.0,76,0.00,,,0.00,weatherlink.com 1.10,2013-03-09 13:23:00,
2013-03-09 08:38:00,36.7,30.0,30.31,East,85,7.0,10.0,76,0.00,,,0.00,weatherlink.com 1.10,2013-03-09 13:38:00,
2013-03-09 08:53:00,37.4,30.0,30.32,ENE,77,3.0,8.0,74,0.00,,,0.00,weatherlink.com 1.10,2013-03-09 13:53:00,
2013-03-09 09:08:00,38.1,30.0,30.31,East,81,4.0,8.0,73,0.00,,,0.00,weatherlink.com 1.10,2013-03-09 14:08:00,
2013-03-09 09:24:00,39.1,30.0,30.31,ESE,102,6.0,7.0,71,0.00,,,0.00,weatherlink.com 1.10,2013-03-09 14:24:00,
2013-03-09 09:39:00,39.8,31.0,30.31,ENE,75,5.0,7.0,70,0.00,,,0.00,weatherlink.com 1.10,2013-03-09 14:39:00,
2013-03-09 09:54:00,40.2,31.0,30.31,ESE,105,5.0,8.0,69,0.00,,,0.00,weatherlink.com 1.10,2013-03-09 14:54:00,
2013-03-09 10:09:00,40.6,31.0,30.31,SSE,166,4.0,5.0,69,0.00,,,0.00,weatherlink.com 1.10,2013-03-09 15:09:00,
2013-03-09 10:24:00,41.0,31.0,30.30,ESE,116,6.0,8.0,67,0.00,,,0.00,weatherlink.com 1.10,2013-03-09 15:24:00,
2013-03-09 10:39:00,41.7,31.0,30.30,SE,138,5.0,7.0,67,0.00,,,0.00,weatherlink.com 1.10,2013-03-09 15:39:00,
2013-03-09 10:54:00,42.5,32.0,30.30,SE,126,1.0,8.0,66,0.00,,,0.00,weatherlink.com 1.10,2013-03-09 15:54:00,
2013-03-09 11:09:00,43.6,32.0,30.30,ESE,111,6.0,8.0,63,0.00,,,0.00,weatherlink.com 1.10,2013-03-09 16:09:00,
2013-03-09 11:24:00,44.2,32.0,30.30,SE,128,5.0,10.0,63,0.00,,,0.00,weatherlink.com 1.10,2013-03-09 16:24:00,
2013-03-09 11:39:00,44.8,31.0,30.28,SE,128,6.0,9.0,60,0.00,,,0.00,weatherlink.com 1.10,2013-03-09 16:39:00,
2013-03-09 11:54:00,47.3,34.0,30.26,ESE,105,6.0,8.0,60,0.00,,,0.00,weatherlink.com 1.10,2013-03-09 16:54:00,
2013-03-09 12:09:00,47.5,34.0,30.26,East,101,6.0,8.0,59,0.00,,,0.00,weatherlink.com 1.10,2013-03-09 17:09:00,
2013-03-09 12:24:00,48.4,34.0,30.26,ESE,109,6.0,8.0,58,0.00,,,0.00,weatherlink.com 1.10,2013-03-09 17:24:00,
2013-03-09 12:39:00,49.3,34.0,30.25,ENE,74,4.0,9.0,55,0.00,,,0.00,weatherlink.com 1.10,2013-03-09 17:39:00,
2013-03-09 12:54:00,50.0,33.0,30.25,East,99,6.0,8.0,53,0.00,,,0.00,weatherlink.com 1.10,2013-03-09 17:54:00,
2013-03-09 13:09:00,51.0,34.0,30.24,SSE,153,4.0,9.0,53,0.00,,,0.00,weatherlink.com 1.10,2013-03-09 18:09:00,
2013-03-09 13:24:00,51.5,34.0,30.23,East,101,6.0,9.0,51,0.00,,,0.00,weatherlink.com 1.10,2013-03-09 18:24:00,
2013-03-09 13:39:00,52.1,34.0,30.23,ESE,117,7.0,10.0,51,0.00,,,0.00,weatherlink.com 1.10,2013-03-09 18:39:00,
2013-03-09 13:54:00,52.9,35.0,30.23,SE,134,2.0,9.0,52,0.00,,,0.00,weatherlink.com 1.10,2013-03-09 18:54:00,
2013-03-09 14:10:00,53.4,34.0,30.19,ENE,70,5.0,7.0,49,0.00,,,0.00,weatherlink.com 1.10,2013-03-09 19:10:00,
2013-03-09 14:25:00,53.7,35.0,30.19,SE,136,5.0,10.0,50,0.00,,,0.00,weatherlink.com 1.10,2013-03-09 19:25:00,
2013-03-09 14:40:00,54.4,35.0,30.18,East,101,7.0,12.0,48,0.00,,,0.00,weatherlink.com 1.10,2013-03-09 19:40:00,
2013-03-09 14:55:00,55.3,35.0,30.17,ESE,118,6.0,7.0,47,0.00,,,0.00,weatherlink.com 1.10,2013-03-09 19:55:00,
2013-03-09 15:10:00,55.9,36.0,30.17,East,99,4.0,8.0,47,0.00,,,0.00,weatherlink.com 1.10,2013-03-09 20:10:00,
2013-03-09 15:25:00,56.1,35.0,30.16,SE,146,2.0,8.0,45,0.00,,,0.00,weatherlink.com 1.10,2013-03-09 20:25:00,
2013-03-09 15:40:00,56.2,34.0,30.16,ESE,114,7.0,8.0,44,0.00,,,0.00,weatherlink.com 1.10,2013-03-09 20:40:00,
2013-03-09 15:55:00,56.4,35.0,30.15,SE,138,1.0,8.0,44,0.00,,,0.00,weatherlink.com 1.10,2013-03-09 20:55:00,
2013-03-09 16:10:00,57.0,34.0,30.14,ESE,115,6.0,9.0,43,0.00,,,0.00,weatherlink.com 1.10,2013-03-09 21:10:00,
2013-03-09 16:25:00,58.2,34.0,30.14,ESE,115,8.0,10.0,41,0.00,,,0.00,weatherlink.com 1.10,2013-03-09 21:25:00,
2013-03-09 16:40:00,58.1,35.0,30.14,ESE,112,3.0,8.0,43,0.00,,,0.00,weatherlink.com 1.10,2013-03-09 21:40:00,
2013-03-09 16:55:00,58.7,35.0,30.13,ESE,108,5.0,6.0,42,0.00,,,0.00,weatherlink.com 1.10,2013-03-09 21:55:00,
2013-03-09 17:10:00,57.9,35.0,30.12,SE,145,2.0,9.0,42,0.00,,,0.00,weatherlink.com 1.10,2013-03-09 22:10:00,
2013-03-09 17:25:00,57.8,35.0,30.13,ESE,111,3.0,5.0,43,0.00,,,0.00,weatherlink.com 1.10,2013-03-09 22:25:00,
2013-03-09 17:40:00,57.4,35.0,30.12,East,101,5.0,7.0,43,0.00,,,0.00,weatherlink.com 1.10,2013-03-09 22:40:00,
2013-03-09 17:55:00,57.4,35.0,30.12,ESE,116,3.0,7.0,43,0.00,,,0.00,weatherlink.com 1.10,2013-03-09 22:55:00,
2013-03-09 18:10:00,57.2,35.0,30.12,ESE,102,4.0,6.0,43,0.00,,,0.00,weatherlink.com 1.10,2013-03-09 23:10:00,
2013-03-09 18:25:00,57.2,35.0,30.12,ESE,113,3.0,6.0,43,0.00,,,0.00,weatherlink.com 1.10,2013-03-09 23:25:00,
2013-03-09 18:40:00,57.1,35.0,30.12,ESE,120,4.0,5.0,43,0.00,,,0.00,weatherlink.com 1.10,2013-03-09 23:40:00,
2013-03-09 18:55:00,56.9,34.0,30.12,SE,125,2.0,3.0,43,0.00,,,0.00,weatherlink.com 1.10,2013-03-09 23:55:00,
2013-03-09 19:10:00,56.8,34.0,30.12,ESE,110,3.0,3.0,43,0.00,,,0.00,weatherlink.com 1.10,2013-03-10 00:10:00,
2013-03-09 19:25:00,56.7,34.0,30.12,ESE,117,4.0,4.0,43,0.00,,,0.00,weatherlink.com 1.10,2013-03-10 00:25:00,
2013-03-09 19:40:00,56.7,34.0,30.12,ESE,122,3.0,3.0,43,0.00,,,0.00,weatherlink.com 1.10,2013-03-10 00:40:00,
2013-03-09 19:55:00,56.9,33.0,30.11,ESE,108,4.0,5.0,41,0.00,,,0.00,weatherlink.com 1.10,2013-03-10 00:55:00,
2013-03-09 20:10:00,56.9,33.0,30.10,ESE,114,4.0,5.0,41,0.00,,,0.00,weatherlink.com 1.10,2013-03-10 01:10:00,
2013-03-09 20:25:00,56.7,33.0,30.11,ESE,105,3.0,4.0,41,0.00,,,0.00,weatherlink.com 1.10,2013-03-10 01:25:00,
2013-03-09 20:40:00,56.3,33.0,30.10,ESE,105,4.0,5.0,42,0.00,,,0.00,weatherlink.com 1.10,2013-03-10 01:40:00,
2013-03-09 20:55:00,56.2,33.0,30.10,ESE,109,2.0,4.0,42,0.00,,,0.00,weatherlink.com 1.10,2013-03-10 01:55:00,
2013-03-09 21:10:00,55.9,33.0,30.10,East,94,3.0,3.0,43,0.00,,,0.00,weatherlink.com 1.10,2013-03-10 02:10:00,
2013-03-09 21:25:00,55.7,33.0,30.10,ESE,102,3.0,4.0,42,0.00,,,0.00,weatherlink.com 1.10,2013-03-10 02:25:00,
2013-03-09 21:40:00,55.8,33.0,30.10,ESE,115,5.0,5.0,42,0.00,,,0.00,weatherlink.com 1.10,2013-03-10 02:40:00,
2013-03-09 21:55:00,55.8,33.0,30.09,ESE,116,7.0,7.0,42,0.00,,,0.00,weatherlink.com 1.10,2013-03-10 02:55:00,
2013-03-09 22:10:00,55.9,33.0,30.08,East,96,6.0,7.0,42,0.00,,,0.00,weatherlink.com 1.10,2013-03-10 03:10:00,
2013-03-09 22:25:00,56.1,33.0,30.08,ESE,108,5.0,9.0,42,0.00,,,0.00,weatherlink.com 1.10,2013-03-10 03:25:00,
2013-03-09 22:40:00,55.7,33.0,30.07,ESE,104,5.0,7.0,42,0.00,,,0.00,weatherlink.com 1.10,2013-03-10 03:40:00,
2013-03-09 22:55:00,55.8,33.0,30.06,East,96,6.0,7.0,42,0.00,,,0.00,weatherlink.com 1.10,2013-03-10 03:55:00,
2013-03-09 23:10:00,56.2,33.0,30.06,ESE,118,6.0,7.0,41,0.00,,,0.00,weatherlink.com 1.10,2013-03-10 04:10:00,
2013-03-09 23:25:00,55.9,33.0,30.06,SE,130,4.0,6.0,42,0.00,,,0.00,weatherlink.com 1.10,2013-03-10 04:25:00,
2013-03-09 23:40:00,55.8,33.0,30.05,SE,130,4.0,6.0,42,0.00,,,0.00,weatherlink.com 1.10,2013-03-10 04:40:00,